createdAt,value
2024-01-24T00:01:44.099Z,1.20
2024-01-24T00:04:48.076Z,1.27
2024-01-24T00:07:50.743Z,1.23
2024-01-24T00:10:53.399Z,1.35
2024-01-24T00:13:56.018Z,1.42
2024-01-24T00:16:58.636Z,0.95
2024-01-24T00:20:02.984Z,1.20
2024-01-24T00:23:05.841Z,1.10
2024-01-24T00:26:08.974Z,0.70
2024-01-24T00:29:11.573Z,1.48
2024-01-24T00:32:14.247Z,1.13
2024-01-24T00:35:18.329Z,0.88
2024-01-24T00:38:21.044Z,1.90
2024-01-24T00:41:23.654Z,1.10
2024-01-24T00:44:27.020Z,1.83
2024-01-24T00:47:29.644Z,1.27
2024-01-24T00:50:35.638Z,1.50
2024-01-24T00:53:38.784Z,2.17
2024-01-24T00:56:41.760Z,1.25
2024-01-24T00:59:44.407Z,0.80
2024-01-24T01:02:47.079Z,0.88
2024-01-24T01:05:51.085Z,1.20
2024-01-24T01:08:53.714Z,1.90
2024-01-24T01:11:56.373Z,1.65
2024-01-24T01:14:59.031Z,2.00
2024-01-24T01:18:01.649Z,1.67
2024-01-24T01:21:05.746Z,1.92
2024-01-24T01:24:09.275Z,2.50
2024-01-24T01:27:11.971Z,1.98
2024-01-24T01:30:15.437Z,2.50
2024-01-24T01:33:18.419Z,2.42
2024-01-24T01:36:23.664Z,2.00
2024-01-24T01:39:26.743Z,2.25
2024-01-24T01:42:29.408Z,1.52
2024-01-24T01:45:33.111Z,2.67
2024-01-24T01:48:36.038Z,1.65
2024-01-24T01:51:40.724Z,1.70
2024-01-24T01:54:44.020Z,2.53
2024-01-24T01:57:46.746Z,2.35
2024-01-24T02:00:49.429Z,1.60
2024-01-24T02:03:52.378Z,2.88
2024-01-24T02:06:57.608Z,3.33
2024-01-24T02:10:00.427Z,3.35
2024-01-24T02:13:03.846Z,3.78
2024-01-24T02:16:07.469Z,4.22
2024-01-24T02:19:10.255Z,4.20
2024-01-24T02:22:14.345Z,2.95
2024-01-24T02:25:18.341Z,4.25
2024-01-24T02:28:21.137Z,5.03
2024-01-24T02:31:23.780Z,4.80
2024-01-24T02:34:26.535Z,3.13
2024-01-24T02:37:29.170Z,6.32
2024-01-24T02:40:33.150Z,3.95
2024-01-24T02:43:35.850Z,2.85
2024-01-24T02:46:38.514Z,4.40
2024-01-24T02:49:41.752Z,3.85
2024-01-24T02:52:44.572Z,2.90
2024-01-24T02:55:48.505Z,5.20
2024-01-24T02:58:51.226Z,5.95
2024-01-24T03:01:53.826Z,5.95
2024-01-24T03:04:56.513Z,6.75
2024-01-24T03:07:59.445Z,7.53
2024-01-24T03:11:03.402Z,4.88
2024-01-24T03:14:05.974Z,4.05
2024-01-24T03:17:09.155Z,5.78
2024-01-24T03:20:13.570Z,5.15
2024-01-24T03:23:17.869Z,5.32
2024-01-24T03:26:21.858Z,4.88
2024-01-24T03:29:24.482Z,3.70
2024-01-24T03:32:27.224Z,5.63
2024-01-24T03:35:29.858Z,7.00
2024-01-24T03:38:32.450Z,5.97
2024-01-24T03:41:37.372Z,6.45
2024-01-24T03:44:40.517Z,5.90
2024-01-24T03:47:43.173Z,5.20
2024-01-24T03:50:45.777Z,5.85
2024-01-24T03:53:48.355Z,7.18
2024-01-24T03:56:52.368Z,6.82
2024-01-24T03:59:55.013Z,6.95
2024-01-24T04:02:57.668Z,9.20
2024-01-24T04:06:00.471Z,6.38
2024-01-24T04:09:04.343Z,8.15
2024-01-24T04:12:08.593Z,5.93
2024-01-24T04:15:11.666Z,6.43
2024-01-24T04:18:14.585Z,5.10
2024-01-24T04:21:17.384Z,8.10
2024-01-24T04:24:20.079Z,7.75
2024-01-24T04:27:24.705Z,6.57
2024-01-24T04:30:27.581Z,6.47
2024-01-24T04:33:30.565Z,7.72
2024-01-24T04:36:33.578Z,8.15
2024-01-24T04:39:36.588Z,4.65
2024-01-24T04:42:40.725Z,6.82
2024-01-24T04:45:43.475Z,8.55
2024-01-24T04:48:46.263Z,5.13
2024-01-24T04:51:49.950Z,7.95
2024-01-24T04:54:53.524Z,6.25
2024-01-24T04:57:57.670Z,8.43
2024-01-24T05:01:01.436Z,8.20
2024-01-24T05:04:04.405Z,7.35
2024-01-24T05:07:07.386Z,4.40
2024-01-24T05:10:10.468Z,8.13
2024-01-24T05:13:14.540Z,11.32
2024-01-24T05:16:17.187Z,6.05
2024-01-24T05:19:19.894Z,10.68
2024-01-24T05:22:22.735Z,11.57
2024-01-24T05:25:25.500Z,8.43
2024-01-24T05:28:29.457Z,11.63
2024-01-24T05:31:32.139Z,3.90
2024-01-24T05:34:34.926Z,9.85
2024-01-24T05:37:37.679Z,8.55
2024-01-24T05:40:40.290Z,8.32
2024-01-24T05:43:44.283Z,9.77
2024-01-24T05:46:46.916Z,13.10
2024-01-24T05:49:49.813Z,10.43
2024-01-24T05:52:52.494Z,12.40
2024-01-24T05:55:55.666Z,10.32
2024-01-24T05:58:59.656Z,9.50
2024-01-24T06:02:02.401Z,9.27
2024-01-24T06:05:05.701Z,8.77
2024-01-24T06:08:08.483Z,10.65
2024-01-24T06:11:12.340Z,10.23
2024-01-24T06:14:16.305Z,10.68
2024-01-24T06:17:18.873Z,8.55
2024-01-24T06:20:21.487Z,10.02
2024-01-24T06:23:24.162Z,8.45
2024-01-24T06:26:26.819Z,6.00
2024-01-24T06:30:15.542Z,4.85
2024-01-24T06:32:53.648Z,6.93
2024-01-24T06:35:56.385Z,9.23
2024-01-24T06:38:59.027Z,7.68
2024-01-24T06:42:01.933Z,7.00
2024-01-24T06:45:07.304Z,8.05
2024-01-24T06:48:09.978Z,7.95
2024-01-24T06:51:14.309Z,8.20
2024-01-24T06:54:17.436Z,7.25
2024-01-24T06:57:20.150Z,8.60
2024-01-24T07:00:24.606Z,7.85
2024-01-24T07:03:27.603Z,8.70
2024-01-24T07:06:30.365Z,8.02
2024-01-24T07:09:33.434Z,6.25
2024-01-24T07:12:36.095Z,9.45
2024-01-24T07:15:40.865Z,6.07
2024-01-24T07:18:43.653Z,8.80
2024-01-24T07:21:47.265Z,4.65
2024-01-24T07:24:49.968Z,7.60
2024-01-24T07:27:53.303Z,7.80
2024-01-24T07:30:57.393Z,8.82
2024-01-24T07:34:00.404Z,7.55
2024-01-24T07:37:03.215Z,7.90
2024-01-24T07:40:07.043Z,6.25
2024-01-24T07:43:09.817Z,7.22
2024-01-24T07:46:14.250Z,10.30
2024-01-24T07:49:17.066Z,7.45
2024-01-24T07:52:28.711Z,10.73
2024-01-24T07:55:51.214Z,8.90
2024-01-24T07:58:58.999Z,10.05
2024-01-24T08:02:04.252Z,7.32
2024-01-24T08:05:07.572Z,8.82
2024-01-24T08:08:10.541Z,10.55
2024-01-24T08:11:13.587Z,8.45
2024-01-24T08:14:16.289Z,9.13
2024-01-24T08:17:20.377Z,6.88
2024-01-24T08:20:23.254Z,8.35
2024-01-24T08:23:34.007Z,8.38
2024-01-24T08:26:41.255Z,9.50
2024-01-24T08:29:44.509Z,9.95
2024-01-24T08:32:49.167Z,8.63
2024-01-24T08:35:52.259Z,5.72
2024-01-24T08:38:54.842Z,9.27
2024-01-24T08:41:57.677Z,8.80
2024-01-24T08:45:00.287Z,8.40
2024-01-24T08:48:04.648Z,8.07
2024-01-24T08:51:07.405Z,9.38
2024-01-24T08:54:10.030Z,9.10
2024-01-24T08:57:12.726Z,6.10
2024-01-24T09:00:15.976Z,8.00
2024-01-24T09:03:20.967Z,10.30
2024-01-24T09:06:23.889Z,10.90
2024-01-24T09:09:26.865Z,6.70
2024-01-24T09:12:29.584Z,7.30
2024-01-24T09:15:32.762Z,8.77
2024-01-24T09:18:39.631Z,9.10
2024-01-24T09:21:42.698Z,8.65
2024-01-24T09:24:45.913Z,8.93
2024-01-24T09:27:48.754Z,9.05
2024-01-24T09:30:51.462Z,9.00
2024-01-24T09:33:55.642Z,6.35
2024-01-24T09:36:58.580Z,8.25
2024-01-24T09:40:01.527Z,7.45
2024-01-24T09:43:04.417Z,6.65
2024-01-24T09:46:07.493Z,7.55
2024-01-24T09:49:11.824Z,8.10
2024-01-24T09:52:14.733Z,7.32
2024-01-24T09:55:20.420Z,9.88
2024-01-24T09:58:23.169Z,9.88
2024-01-24T10:01:25.910Z,8.57
2024-01-24T10:04:29.938Z,6.90
2024-01-24T10:07:32.744Z,10.73
2024-01-24T10:10:35.417Z,10.35
2024-01-24T10:13:38.845Z,8.15
2024-01-24T10:16:43.354Z,8.23
2024-01-24T10:19:47.401Z,8.75
2024-01-24T10:22:51.286Z,10.27
2024-01-24T10:25:53.983Z,7.57
2024-01-24T10:28:56.775Z,6.72
2024-01-24T10:32:00.153Z,6.22
2024-01-24T10:35:06.967Z,7.95
2024-01-24T10:38:10.805Z,7.32
2024-01-24T10:41:14.208Z,8.05
2024-01-24T10:44:18.656Z,8.77
2024-01-24T10:47:22.467Z,8.30
2024-01-24T10:50:26.744Z,6.45
2024-01-24T10:53:29.443Z,8.88
2024-01-24T10:56:32.385Z,4.72
2024-01-24T10:59:35.128Z,7.90
2024-01-24T11:02:38.224Z,8.25
2024-01-24T11:05:44.555Z,7.93
2024-01-24T11:08:51.267Z,7.75
2024-01-24T11:11:55.573Z,7.75
2024-01-24T11:15:04.362Z,8.18
2024-01-24T11:18:24.013Z,7.05
2024-01-24T11:21:30.426Z,8.50
2024-01-24T11:24:49.061Z,10.20
2024-01-24T11:27:57.836Z,8.07
2024-01-24T11:31:00.678Z,8.70
2024-01-24T11:34:10.170Z,6.88
2024-01-24T11:37:16.269Z,7.15
2024-01-24T11:40:19.580Z,7.63
2024-01-24T11:43:25.983Z,7.50
2024-01-24T11:46:29.161Z,8.98
2024-01-24T11:49:32.986Z,9.00
2024-01-24T11:52:37.076Z,6.65
2024-01-24T11:55:39.697Z,4.50
2024-01-24T11:58:42.498Z,8.18
2024-01-24T12:01:45.782Z,5.75
2024-01-24T12:04:51.234Z,9.02
2024-01-24T12:07:55.258Z,9.18
2024-01-24T12:10:57.917Z,6.68
2024-01-24T12:14:00.605Z,8.30
2024-01-24T12:17:09.896Z,9.98
2024-01-24T12:20:26.561Z,9.77
2024-01-24T12:23:30.670Z,9.13
2024-01-24T12:26:33.543Z,8.40
2024-01-24T12:29:36.198Z,10.20
2024-01-24T12:32:39.059Z,11.02
2024-01-24T12:35:45.253Z,8.18
2024-01-24T12:38:51.328Z,9.75
2024-01-24T12:41:54.114Z,9.75
2024-01-24T12:44:56.767Z,9.57
2024-01-24T12:47:59.601Z,7.60
2024-01-24T12:51:02.300Z,7.00
2024-01-24T12:54:06.914Z,8.48
2024-01-24T12:57:09.587Z,9.98
2024-01-24T13:00:13.369Z,9.52
2024-01-24T13:03:16.391Z,9.60
2024-01-24T13:06:20.635Z,8.45
2024-01-24T13:09:24.830Z,9.18
2024-01-24T13:12:27.730Z,8.05
2024-01-24T13:15:33.519Z,8.57
2024-01-24T13:18:36.294Z,9.43
2024-01-24T13:21:42.662Z,5.88
2024-01-24T13:24:47.899Z,8.88
2024-01-24T13:27:56.768Z,8.25
2024-01-24T13:30:59.537Z,8.23
2024-01-24T13:34:02.288Z,6.13
2024-01-24T13:37:05.014Z,9.02
2024-01-24T13:40:12.566Z,7.05
2024-01-24T13:43:16.321Z,7.95
2024-01-24T13:46:19.073Z,3.85
2024-01-24T13:49:21.989Z,7.63
2024-01-24T13:52:24.752Z,8.52
2024-01-24T13:55:28.689Z,9.60
2024-01-24T13:58:31.527Z,7.97
2024-01-24T14:01:38.276Z,7.43
2024-01-24T14:04:45.706Z,8.23
2024-01-24T14:07:48.536Z,7.95
2024-01-24T14:10:52.530Z,6.32
2024-01-24T14:13:55.166Z,6.95
2024-01-24T14:16:57.818Z,8.23
2024-01-24T14:20:00.613Z,7.93
2024-01-24T14:23:04.819Z,7.63
2024-01-24T14:26:11.091Z,7.68
2024-01-24T14:32:17.392Z,9.52
2024-01-24T14:35:20.242Z,8.38
2024-01-24T14:38:23.022Z,8.82
2024-01-24T14:41:27.017Z,9.25
2024-01-24T14:44:29.971Z,8.13
2024-01-24T14:47:32.616Z,8.82
2024-01-24T14:50:35.222Z,9.80
2024-01-24T14:53:37.797Z,8.48
2024-01-24T14:56:42.244Z,8.80
2024-01-24T14:59:45.689Z,7.18
2024-01-24T15:02:48.484Z,8.50
2024-01-24T15:05:51.767Z,6.40
2024-01-24T15:08:54.574Z,9.30
2024-01-24T15:11:59.729Z,8.40
2024-01-24T15:15:04.390Z,7.53
2024-01-24T15:18:07.785Z,8.82
2024-01-24T15:21:13.414Z,8.35
2024-01-24T15:24:16.979Z,8.70
2024-01-24T15:27:23.008Z,8.35
2024-01-24T15:30:25.782Z,6.43
2024-01-24T15:33:28.699Z,7.93
2024-01-24T15:36:31.455Z,8.55
2024-01-24T15:39:34.747Z,8.38
2024-01-24T15:42:42.948Z,9.35
2024-01-24T15:45:46.987Z,7.68
2024-01-24T15:48:50.149Z,6.93
2024-01-24T15:51:54.626Z,7.70
2024-01-24T15:54:57.328Z,8.85
2024-01-24T15:58:01.439Z,8.73
2024-01-24T16:01:05.243Z,8.25
2024-01-24T16:04:08.344Z,8.00
2024-01-24T16:07:11.297Z,8.07
2024-01-24T16:10:14.294Z,7.72
2024-01-24T16:13:18.518Z,8.20
2024-01-24T16:16:21.255Z,7.53
2024-01-24T16:19:24.323Z,9.02
2024-01-24T16:22:32.932Z,7.68
2024-01-24T16:25:39.315Z,6.40
2024-01-24T16:28:44.484Z,6.93
2024-01-24T16:31:47.182Z,8.50
2024-01-24T16:34:50.098Z,7.50
2024-01-24T16:37:53.782Z,6.72
2024-01-24T16:40:56.417Z,7.95
2024-01-24T16:44:00.394Z,7.78
2024-01-24T16:47:03.154Z,7.88
2024-01-24T16:50:06.956Z,5.90
2024-01-24T16:53:10.803Z,6.53
2024-01-24T16:56:13.759Z,7.70
2024-01-24T16:59:17.727Z,7.82
2024-01-24T17:02:20.568Z,6.70
2024-01-24T17:05:23.789Z,7.13
2024-01-24T17:08:26.397Z,6.05
2024-01-24T17:11:29.046Z,7.15
2024-01-24T17:14:33.072Z,7.47
2024-01-24T17:17:35.816Z,7.03
2024-01-24T17:20:38.513Z,6.63
2024-01-24T17:23:41.197Z,6.05
2024-01-24T17:26:43.803Z,4.63
2024-01-24T17:29:47.957Z,7.00
2024-01-24T17:32:50.814Z,5.50
2024-01-24T17:35:53.471Z,7.18
2024-01-24T17:38:56.664Z,6.38
2024-01-24T17:41:59.473Z,7.18
2024-01-24T17:45:03.683Z,6.45
2024-01-24T17:48:07.397Z,7.22
2024-01-24T17:51:10.124Z,6.68
2024-01-24T17:54:12.821Z,6.65
2024-01-24T17:57:16.373Z,6.05
2024-01-24T18:00:21.077Z,6.93
2024-01-24T18:03:23.876Z,7.30
2024-01-24T18:06:26.514Z,5.85
2024-01-24T18:09:29.164Z,7.00
2024-01-24T18:12:32.527Z,6.43
2024-01-24T18:15:36.599Z,7.70
2024-01-24T18:18:39.514Z,6.95
2024-01-24T18:21:42.240Z,7.32
2024-01-24T18:24:46.942Z,6.38
2024-01-24T18:27:49.709Z,5.97
2024-01-24T18:30:54.089Z,7.10
2024-01-24T18:33:56.829Z,5.15
2024-01-24T18:36:59.656Z,4.50
2024-01-24T18:40:02.498Z,5.57
2024-01-24T18:43:05.965Z,4.80
2024-01-24T18:46:10.207Z,6.60
2024-01-24T18:49:13.321Z,6.15
2024-01-24T18:52:16.516Z,7.07
2024-01-24T18:55:21.902Z,5.90
2024-01-24T18:58:26.540Z,4.85
2024-01-24T19:01:30.704Z,7.07
2024-01-24T19:04:33.711Z,6.05
2024-01-24T19:07:37.278Z,7.60
2024-01-24T19:10:39.918Z,5.50
2024-01-24T19:13:42.731Z,5.53
2024-01-24T19:16:46.980Z,6.45
2024-01-24T19:19:49.764Z,5.15
2024-01-24T19:22:54.469Z,7.20
2024-01-24T19:25:57.324Z,5.45
2024-01-24T19:29:00.012Z,5.00
2024-01-24T19:32:04.200Z,5.93
2024-01-24T19:35:07.182Z,6.45
2024-01-24T19:38:11.033Z,6.22
2024-01-24T19:41:13.695Z,5.35
2024-01-24T19:44:17.902Z,6.22
2024-01-24T19:47:22.085Z,4.93
2024-01-24T19:50:24.873Z,7.72
2024-01-24T19:53:33.146Z,7.65
2024-01-24T19:56:36.414Z,7.35
2024-01-24T19:59:39.308Z,7.10
2024-01-24T20:02:43.242Z,6.78
2024-01-24T20:05:45.922Z,6.88
2024-01-24T20:08:49.327Z,5.25
2024-01-24T20:11:54.072Z,6.03
2024-01-24T20:14:57.028Z,6.90
2024-01-24T20:18:01.228Z,6.78
2024-01-24T20:21:03.909Z,7.68
2024-01-24T20:24:08.914Z,6.70
2024-01-24T20:27:11.688Z,5.45
2024-01-24T20:30:14.628Z,6.90
2024-01-24T20:33:18.648Z,7.07
2024-01-24T20:36:23.217Z,6.35
2024-01-24T20:39:26.592Z,6.63
2024-01-24T20:42:30.240Z,6.80
2024-01-24T20:45:33.079Z,5.50
2024-01-24T20:48:37.270Z,7.10
2024-01-24T20:51:40.732Z,8.27
2024-01-24T20:54:43.733Z,6.68
2024-01-24T20:57:46.654Z,6.63
2024-01-24T21:00:49.588Z,6.75
2024-01-24T21:03:54.533Z,5.88
2024-01-24T21:06:58.690Z,6.85
2024-01-24T21:10:01.548Z,6.80
2024-01-24T21:13:04.625Z,5.88
2024-01-24T21:16:07.293Z,7.13
2024-01-24T21:19:17.146Z,7.57
2024-01-24T21:22:20.091Z,6.78
2024-01-24T21:25:22.825Z,7.03
2024-01-24T21:28:25.465Z,7.70
2024-01-24T21:31:28.831Z,7.75
2024-01-24T21:34:32.994Z,7.18
2024-01-24T21:37:35.697Z,6.78
2024-01-24T21:40:38.426Z,7.32
2024-01-24T21:43:41.002Z,6.32
2024-01-24T21:46:43.645Z,7.10
2024-01-24T21:49:48.245Z,6.93
2024-01-24T21:52:50.935Z,6.85
2024-01-24T21:55:53.552Z,7.70
2024-01-24T21:58:56.442Z,7.55
2024-01-24T22:01:59.506Z,6.72
2024-01-24T22:05:03.575Z,7.63
2024-01-24T22:08:07.830Z,6.57
2024-01-24T22:11:10.780Z,7.10
2024-01-24T22:14:13.467Z,7.57
2024-01-24T22:17:16.093Z,7.22
2024-01-24T22:20:20.111Z,7.45
2024-01-24T22:23:22.754Z,7.72
2024-01-24T22:26:25.416Z,6.97
2024-01-24T22:29:28.252Z,7.60
2024-01-24T22:32:30.907Z,7.30
2024-01-24T22:35:35.016Z,6.97
2024-01-24T22:38:37.797Z,7.40
2024-01-24T22:41:41.699Z,7.32
2024-01-24T22:44:44.349Z,7.00
2024-01-24T22:47:47.000Z,7.80
2024-01-24T22:50:51.052Z,6.53
2024-01-24T22:53:55.569Z,7.88
2024-01-24T22:56:58.278Z,6.15
2024-01-24T23:00:00.929Z,6.00
2024-01-24T23:03:03.550Z,7.75
2024-01-24T23:06:07.785Z,7.55
2024-01-24T23:09:10.358Z,7.13
2024-01-24T23:12:12.973Z,7.78
2024-01-24T23:15:15.647Z,7.90
2024-01-24T23:18:19.026Z,7.00
2024-01-24T23:21:23.038Z,7.50
2024-01-24T23:24:25.625Z,7.65
2024-01-24T23:27:28.247Z,7.40
2024-01-24T23:30:30.892Z,7.70
2024-01-24T23:33:35.715Z,8.57
2024-01-24T23:36:39.963Z,7.53
2024-01-24T23:39:42.857Z,9.13
2024-01-24T23:42:46.335Z,8.52
2024-01-24T23:45:49.077Z,7.93
2024-01-24T23:48:52.326Z,8.70
2024-01-24T23:51:56.645Z,8.15
2024-01-24T23:54:59.494Z,7.53
2024-01-24T23:58:02.209Z,7.47
